createdAt,value
2023-06-11T00:01:09.925Z,15.48
2023-06-11T00:03:58.150Z,15.44
2023-06-11T00:06:26.384Z,15.40
2023-06-11T00:08:56.361Z,15.35
2023-06-11T00:11:24.380Z,15.28
2023-06-11T00:13:54.287Z,15.22
2023-06-11T00:16:22.266Z,15.19
2023-06-11T00:18:50.165Z,15.16
2023-06-11T00:21:18.200Z,15.12
2023-06-11T00:23:46.038Z,15.07
2023-06-11T00:26:13.911Z,15.04
2023-06-11T00:28:41.824Z,15.00
2023-06-11T00:31:09.857Z,14.97
2023-06-11T00:33:37.908Z,14.94
2023-06-11T00:36:06.169Z,14.89
2023-06-11T00:38:34.614Z,14.84
2023-06-11T00:41:02.391Z,14.80
2023-06-11T00:43:32.193Z,14.77
2023-06-11T00:46:03.674Z,14.74
2023-06-11T00:48:31.892Z,14.71
2023-06-11T00:51:00.037Z,14.71
2023-06-11T00:53:27.968Z,14.73
2023-06-11T00:55:56.437Z,14.76
2023-06-11T00:58:24.890Z,14.78
2023-06-11T01:00:58.099Z,14.78
2023-06-11T01:03:28.801Z,14.77
2023-06-11T01:06:03.888Z,14.75
2023-06-11T01:08:36.324Z,14.74
2023-06-11T01:11:04.300Z,14.71
2023-06-11T01:13:32.140Z,14.68
2023-06-11T01:16:11.400Z,14.64
2023-06-11T01:18:54.546Z,14.62
2023-06-11T01:21:30.238Z,14.60
2023-06-11T01:24:31.018Z,14.59
2023-06-11T01:27:10.992Z,14.56
2023-06-11T01:29:46.674Z,14.53
2023-06-11T01:32:18.815Z,14.50
2023-06-11T01:34:46.717Z,14.49
2023-06-11T01:37:16.002Z,14.47
2023-06-11T01:39:46.924Z,14.44
2023-06-11T01:42:14.835Z,14.41
2023-06-11T01:44:42.715Z,14.38
2023-06-11T01:47:10.833Z,14.35
2023-06-11T01:49:38.603Z,14.30
2023-06-11T01:52:08.020Z,14.27
2023-06-11T01:54:36.416Z,14.24
2023-06-11T01:57:04.600Z,14.22
2023-06-11T01:59:32.473Z,14.19
2023-06-11T02:02:00.391Z,14.15
2023-06-11T02:04:28.278Z,14.12
2023-06-11T02:06:56.195Z,14.10
2023-06-11T02:09:24.195Z,14.08
2023-06-11T02:11:52.036Z,14.07
2023-06-11T02:14:20.083Z,14.04
2023-06-11T02:16:47.918Z,14.03
2023-06-11T02:19:15.866Z,14.03
2023-06-11T02:21:44.519Z,14.02
2023-06-11T02:24:12.479Z,14.02
2023-06-11T02:26:40.517Z,13.99
2023-06-11T02:29:08.343Z,13.99
2023-06-11T02:31:36.225Z,13.98
2023-06-11T02:34:04.164Z,13.96
2023-06-11T02:36:31.973Z,13.96
2023-06-11T02:38:59.885Z,13.96
2023-06-11T02:41:28.085Z,13.94
2023-06-11T02:43:55.926Z,13.92
2023-06-11T02:46:23.935Z,13.90
2023-06-11T02:48:51.943Z,13.90
2023-06-11T02:51:19.965Z,13.90
2023-06-11T02:53:47.968Z,13.90
2023-06-11T02:56:15.892Z,13.90
2023-06-11T02:58:45.570Z,13.89
2023-06-11T03:01:13.413Z,13.89
2023-06-11T03:03:41.406Z,13.89
2023-06-11T03:06:09.584Z,13.89
2023-06-11T03:08:37.506Z,13.90
2023-06-11T03:11:05.335Z,13.92
2023-06-11T03:13:33.290Z,13.93
2023-06-11T03:16:01.230Z,13.93
2023-06-11T03:18:29.156Z,13.93
2023-06-11T03:20:57.314Z,13.94
2023-06-11T03:23:25.230Z,13.97
2023-06-11T03:25:52.971Z,14.01
2023-06-11T03:28:20.729Z,14.08
2023-06-11T03:30:48.643Z,14.15
2023-06-11T03:33:16.568Z,14.22
2023-06-11T03:35:44.349Z,14.28
2023-06-11T03:38:12.202Z,14.33
2023-06-11T03:40:40.090Z,14.35
2023-06-11T03:43:07.876Z,14.35
2023-06-11T03:45:35.851Z,14.35
2023-06-11T03:48:05.479Z,14.36
2023-06-11T03:50:33.411Z,14.37
2023-06-11T03:53:01.618Z,14.41
2023-06-11T03:55:30.966Z,14.43
2023-06-11T03:57:59.189Z,14.42
2023-06-11T04:00:32.052Z,14.40
2023-06-11T04:03:01.125Z,14.36
2023-06-11T04:05:29.365Z,14.37
2023-06-11T04:07:57.159Z,14.39
2023-06-11T04:10:25.133Z,14.43
2023-06-11T04:12:53.201Z,14.47
2023-06-11T04:15:21.337Z,14.50
2023-06-11T04:17:49.221Z,14.54
2023-06-11T04:20:17.032Z,14.55
2023-06-11T04:22:45.593Z,14.57
2023-06-11T04:25:18.174Z,14.62
2023-06-11T04:27:49.359Z,14.67
2023-06-11T04:30:17.848Z,14.71
2023-06-11T04:32:46.137Z,14.76
2023-06-11T04:35:16.312Z,14.82
2023-06-11T04:37:44.703Z,14.87
2023-06-11T04:40:12.701Z,14.93
2023-06-11T04:42:43.356Z,14.97
2023-06-11T04:45:12.506Z,15.04
2023-06-11T04:47:41.814Z,15.11
2023-06-11T04:50:10.050Z,15.17
2023-06-11T04:52:44.146Z,15.21
2023-06-11T04:55:13.768Z,15.26
2023-06-11T04:57:42.945Z,15.31
2023-06-11T05:00:12.375Z,15.37
2023-06-11T05:02:44.943Z,15.45
2023-06-11T05:05:14.492Z,15.54
2023-06-11T05:07:43.055Z,15.62
2023-06-11T05:10:11.239Z,15.72
2023-06-11T05:12:39.275Z,15.80
2023-06-11T05:15:08.228Z,15.88
2023-06-11T05:17:37.132Z,15.94
2023-06-11T05:20:06.612Z,15.99
2023-06-11T05:22:35.671Z,16.05
2023-06-11T05:25:03.960Z,16.10
2023-06-11T05:27:33.101Z,16.16
2023-06-11T05:30:01.760Z,16.23
2023-06-11T05:32:32.684Z,16.30
2023-06-11T05:35:00.635Z,16.38
2023-06-11T05:37:28.503Z,16.46
2023-06-11T05:39:56.462Z,16.53
2023-06-11T05:42:24.389Z,16.60
2023-06-11T05:44:52.244Z,16.66
2023-06-11T05:47:20.089Z,16.74
2023-06-11T05:49:48.101Z,16.81
2023-06-11T05:52:16.063Z,16.89
2023-06-11T05:54:44.025Z,16.97
2023-06-11T05:57:28.203Z,17.04
2023-06-11T05:59:56.055Z,17.11
2023-06-11T06:02:24.106Z,17.20
2023-06-11T06:04:52.396Z,17.28
2023-06-11T06:07:20.340Z,17.36
2023-06-11T06:09:48.218Z,17.44
2023-06-11T06:12:17.043Z,17.52
2023-06-11T06:14:44.856Z,17.60
2023-06-11T06:17:12.749Z,17.70
2023-06-11T06:19:40.601Z,17.81
2023-06-11T06:22:08.787Z,17.91
2023-06-11T06:24:36.798Z,18.01
2023-06-11T06:27:05.188Z,18.11
2023-06-11T06:29:34.068Z,18.22
2023-06-11T06:32:02.195Z,18.32
2023-06-11T06:34:30.433Z,18.41
2023-06-11T06:36:58.341Z,18.52
2023-06-11T06:39:26.246Z,18.62
2023-06-11T06:41:54.024Z,18.73
2023-06-11T06:44:21.840Z,18.80
2023-06-11T06:46:50.306Z,18.89
2023-06-11T06:49:18.292Z,18.98
2023-06-11T06:51:46.166Z,19.08
2023-06-11T06:54:14.438Z,19.16
2023-06-11T06:56:42.510Z,19.21
2023-06-11T06:59:10.624Z,19.29
2023-06-11T07:01:38.512Z,19.40
2023-06-11T07:04:06.492Z,19.51
2023-06-11T07:06:34.403Z,19.59
2023-06-11T07:09:04.393Z,19.69
2023-06-11T07:11:32.377Z,19.79
2023-06-11T07:14:00.433Z,19.87
2023-06-11T07:16:28.472Z,19.97
2023-06-11T07:18:56.404Z,20.06
2023-06-11T07:21:24.670Z,20.16
2023-06-11T07:23:52.754Z,20.25
2023-06-11T07:26:20.660Z,20.33
2023-06-11T07:28:48.465Z,20.40
2023-06-11T07:31:16.443Z,20.47
2023-06-11T07:33:45.500Z,20.54
2023-06-11T07:36:13.335Z,20.63
2023-06-11T07:38:41.653Z,20.71
2023-06-11T07:41:09.640Z,20.77
2023-06-11T07:43:37.657Z,20.82
2023-06-11T07:46:06.008Z,20.87
2023-06-11T07:48:33.920Z,20.94
2023-06-11T07:51:01.865Z,20.99
2023-06-11T07:53:29.922Z,21.03
2023-06-11T07:55:58.497Z,21.07
2023-06-11T07:58:26.794Z,21.09
2023-06-11T08:00:54.732Z,21.13
2023-06-11T08:03:23.145Z,21.23
2023-06-11T08:05:51.795Z,21.34
2023-06-11T08:08:19.846Z,21.43
2023-06-11T08:10:51.766Z,21.51
2023-06-11T08:13:23.026Z,21.56
2023-06-11T08:15:51.779Z,21.60
2023-06-11T08:18:20.151Z,21.64
2023-06-11T08:20:48.609Z,21.72
2023-06-11T08:23:16.410Z,21.83
2023-06-11T08:25:44.425Z,21.98
2023-06-11T08:28:12.446Z,22.15
2023-06-11T08:30:40.372Z,22.28
2023-06-11T08:33:08.410Z,22.42
2023-06-11T08:35:36.417Z,22.54
2023-06-11T08:38:04.888Z,22.69
2023-06-11T08:40:39.811Z,22.82
2023-06-11T08:43:11.418Z,22.94
2023-06-11T08:45:39.459Z,23.03
2023-06-11T08:48:09.600Z,23.14
2023-06-11T08:50:39.050Z,23.27
2023-06-11T08:53:08.687Z,23.41
2023-06-11T08:55:36.509Z,23.54
2023-06-11T08:58:05.192Z,23.65
2023-06-11T09:00:33.194Z,23.79
2023-06-11T09:03:03.208Z,23.92
2023-06-11T09:05:34.631Z,24.03
2023-06-11T09:08:08.563Z,24.13
2023-06-11T09:10:50.365Z,24.23
2023-06-11T09:13:19.554Z,24.35
2023-06-11T09:15:49.633Z,24.46
2023-06-11T09:18:23.887Z,24.55
2023-06-11T09:20:57.100Z,24.66
2023-06-11T09:23:38.618Z,24.79
2023-06-11T09:26:06.570Z,24.93
2023-06-11T09:28:36.648Z,25.06
2023-06-11T09:31:05.886Z,25.19
2023-06-11T09:33:34.317Z,25.26
2023-06-11T09:36:02.803Z,25.24
2023-06-11T09:38:35.754Z,25.26
2023-06-11T09:41:08.181Z,25.32
2023-06-11T09:43:36.345Z,25.41
2023-06-11T09:46:04.504Z,25.53
2023-06-11T09:48:32.731Z,25.60
2023-06-11T09:51:03.869Z,25.67
2023-06-11T09:53:35.911Z,25.79
2023-06-11T09:56:11.796Z,25.94
2023-06-11T09:58:41.977Z,26.11
2023-06-11T10:01:12.646Z,26.30
2023-06-11T10:03:41.735Z,26.44
2023-06-11T10:06:17.321Z,26.48
2023-06-11T10:08:49.785Z,26.51
2023-06-11T10:11:23.894Z,26.53
2023-06-11T10:13:59.806Z,26.55
2023-06-11T10:16:29.060Z,26.56
2023-06-11T10:19:08.026Z,26.57
2023-06-11T10:21:51.717Z,26.54
2023-06-11T10:24:25.197Z,26.49
2023-06-11T10:27:08.702Z,26.41
2023-06-11T10:29:43.527Z,26.20
2023-06-11T10:32:29.525Z,26.10
2023-06-11T10:35:04.714Z,26.04
2023-06-11T10:37:34.404Z,25.94
2023-06-11T10:40:03.491Z,25.87
2023-06-11T10:42:40.077Z,25.81
2023-06-11T10:45:12.863Z,25.70
2023-06-11T10:47:41.985Z,25.58
2023-06-11T10:50:15.880Z,25.47
2023-06-11T10:52:49.792Z,25.40
2023-06-11T10:55:22.111Z,25.34
2023-06-11T10:58:00.477Z,25.29
2023-06-11T11:00:34.000Z,25.26
2023-06-11T11:03:05.082Z,25.28
2023-06-11T11:05:33.485Z,25.30
2023-06-11T11:08:02.198Z,25.35
2023-06-11T11:10:30.643Z,25.38
2023-06-11T11:12:59.757Z,25.42
2023-06-11T11:15:30.355Z,25.44
2023-06-11T11:17:58.465Z,25.45
2023-06-11T11:20:27.002Z,25.45
2023-06-11T11:22:57.362Z,25.48
2023-06-11T11:25:31.355Z,25.53
2023-06-11T11:27:59.753Z,25.53
2023-06-11T11:30:29.524Z,25.46
2023-06-11T11:32:58.597Z,25.38
2023-06-11T11:35:27.826Z,25.34
2023-06-11T11:37:56.223Z,25.28
2023-06-11T11:40:24.647Z,25.15
2023-06-11T11:42:57.259Z,25.02
2023-06-11T11:45:33.131Z,24.92
2023-06-11T11:48:04.925Z,24.82
2023-06-11T11:50:34.847Z,24.69
2023-06-11T11:53:04.658Z,24.59
2023-06-11T11:55:34.844Z,24.56
2023-06-11T11:58:07.771Z,24.55
2023-06-11T12:00:38.579Z,24.54
2023-06-11T12:03:09.453Z,24.57
2023-06-11T12:05:38.660Z,24.61
2023-06-11T12:08:07.585Z,24.61
2023-06-11T12:10:35.732Z,24.62
2023-06-11T12:13:04.423Z,24.64
2023-06-11T12:15:32.359Z,24.66
2023-06-11T12:18:00.295Z,24.69
2023-06-11T12:20:29.578Z,24.70
2023-06-11T12:22:57.590Z,24.60
2023-06-11T12:25:26.927Z,24.49
2023-06-11T12:27:55.639Z,24.43
2023-06-11T12:30:23.821Z,24.37
2023-06-11T12:32:52.801Z,24.34
2023-06-11T12:35:20.917Z,24.32
2023-06-11T12:37:48.859Z,24.30
2023-06-11T12:40:17.755Z,24.25
2023-06-11T12:42:45.928Z,24.18
2023-06-11T12:45:13.918Z,24.09
2023-06-11T12:47:42.475Z,24.02
2023-06-11T12:50:10.968Z,23.99
2023-06-11T12:52:40.958Z,23.98
2023-06-11T12:55:09.442Z,24.00
2023-06-11T12:57:37.200Z,23.99
2023-06-11T13:00:06.490Z,23.98
2023-06-11T13:02:34.571Z,23.95
2023-06-11T13:05:02.842Z,23.88
2023-06-11T13:07:31.020Z,23.77
2023-06-11T13:09:59.122Z,23.65
2023-06-11T13:12:28.646Z,23.53
2023-06-11T13:14:56.787Z,23.43
2023-06-11T13:17:24.717Z,23.35
2023-06-11T13:19:55.823Z,23.29
2023-06-11T13:22:23.986Z,23.21
2023-06-11T13:24:51.976Z,23.14
2023-06-11T13:27:19.809Z,23.07
2023-06-11T13:29:47.880Z,23.03
2023-06-11T13:32:16.993Z,23.03
2023-06-11T13:34:44.970Z,22.98
2023-06-11T13:37:13.473Z,22.95
2023-06-11T13:39:41.653Z,22.95
2023-06-11T13:42:11.547Z,22.98
2023-06-11T13:44:39.434Z,22.99
2023-06-11T13:47:07.874Z,23.01
2023-06-11T13:49:36.040Z,23.11
2023-06-11T13:52:04.346Z,23.21
2023-06-11T13:54:34.432Z,23.24
2023-06-11T13:57:02.601Z,23.20
2023-06-11T13:59:32.484Z,23.15
2023-06-11T14:02:02.682Z,23.12
2023-06-11T14:04:31.187Z,23.14
2023-06-11T14:06:59.294Z,23.17
2023-06-11T14:09:27.438Z,23.19
2023-06-11T14:11:55.436Z,23.15
2023-06-11T14:14:24.408Z,23.05
2023-06-11T14:16:52.840Z,23.00
2023-06-11T14:19:20.936Z,23.03
2023-06-11T14:21:48.893Z,23.04
2023-06-11T14:24:17.983Z,22.99
2023-06-11T14:26:46.548Z,22.93
2023-06-11T14:29:14.579Z,22.90
2023-06-11T14:31:42.530Z,22.90
2023-06-11T14:34:10.616Z,22.89
2023-06-11T14:36:38.633Z,22.86
2023-06-11T14:39:06.545Z,22.83
2023-06-11T14:41:34.532Z,22.83
2023-06-11T14:44:02.897Z,22.86
2023-06-11T14:46:30.914Z,22.86
2023-06-11T14:48:58.823Z,22.88
2023-06-11T14:51:27.768Z,22.93
2023-06-11T14:53:55.761Z,23.00
2023-06-11T14:56:23.892Z,23.04
2023-06-11T14:58:51.818Z,23.06
2023-06-11T15:01:19.727Z,23.10
2023-06-11T15:03:47.749Z,23.11
2023-06-11T15:06:16.169Z,23.09
2023-06-11T15:08:44.039Z,23.02
2023-06-11T15:11:11.815Z,22.95
2023-06-11T15:13:39.763Z,22.92
2023-06-11T15:16:07.785Z,22.87
2023-06-11T15:18:35.934Z,22.80
2023-06-11T15:21:04.011Z,22.73
2023-06-11T15:23:31.875Z,22.65
2023-06-11T15:25:59.831Z,22.54
2023-06-11T15:28:27.766Z,22.42
2023-06-11T15:30:55.913Z,22.29
2023-06-11T15:33:23.993Z,22.17
2023-06-11T15:35:51.981Z,22.07
2023-06-11T15:38:19.873Z,22.00
2023-06-11T15:40:47.674Z,21.93
2023-06-11T15:43:15.597Z,21.87
2023-06-11T15:45:43.506Z,21.81
2023-06-11T15:48:11.458Z,21.76
2023-06-11T15:50:39.537Z,21.71
2023-06-11T15:53:07.462Z,21.65
2023-06-11T15:55:36.066Z,21.59
2023-06-11T15:58:06.554Z,21.53
2023-06-11T16:00:36.076Z,21.47
2023-06-11T16:03:04.520Z,21.43
2023-06-11T16:05:32.729Z,21.42
2023-06-11T16:08:00.602Z,21.40
2023-06-11T16:10:28.583Z,21.37
2023-06-11T16:12:56.658Z,21.35
2023-06-11T16:15:24.573Z,21.34
2023-06-11T16:17:52.502Z,21.33
2023-06-11T16:20:20.427Z,21.33
2023-06-11T16:22:48.378Z,21.33
2023-06-11T16:25:16.257Z,21.32
2023-06-11T16:27:44.732Z,21.31
2023-06-11T16:30:13.752Z,21.28
2023-06-11T16:32:45.666Z,21.25
2023-06-11T16:35:13.981Z,21.22
2023-06-11T16:37:42.002Z,21.19
2023-06-11T16:40:10.103Z,21.17
2023-06-11T16:42:37.929Z,21.15
2023-06-11T16:45:06.540Z,21.12
2023-06-11T16:47:34.589Z,21.08
2023-06-11T16:50:02.866Z,21.02
2023-06-11T16:52:32.537Z,20.99
2023-06-11T16:55:02.370Z,20.94
2023-06-11T16:57:30.713Z,20.89
2023-06-11T16:59:59.570Z,20.85
2023-06-11T17:02:27.589Z,20.79
2023-06-11T17:04:56.030Z,20.74
2023-06-11T17:07:23.886Z,20.68
2023-06-11T17:09:51.812Z,20.62
2023-06-11T17:12:19.829Z,20.58
2023-06-11T17:14:47.848Z,20.55
2023-06-11T17:17:15.805Z,20.52
2023-06-11T17:19:46.325Z,20.46
2023-06-11T17:22:14.317Z,20.40
2023-06-11T17:24:42.194Z,20.34
2023-06-11T17:27:10.180Z,20.29
2023-06-11T17:29:38.032Z,20.24
2023-06-11T17:32:06.507Z,20.19
2023-06-11T17:34:34.478Z,20.15
2023-06-11T17:37:02.577Z,20.09
2023-06-11T17:39:30.607Z,20.04
2023-06-11T17:41:58.562Z,20.00
2023-06-11T17:44:26.480Z,19.97
2023-06-11T17:46:54.478Z,19.92
2023-06-11T17:49:22.463Z,19.86
2023-06-11T17:51:51.602Z,19.82
2023-06-11T17:54:19.488Z,19.78
2023-06-11T17:56:47.337Z,19.74
2023-06-11T17:59:15.255Z,19.70
2023-06-11T18:01:43.534Z,19.65
2023-06-11T18:04:11.357Z,19.64
2023-06-11T18:06:39.327Z,19.65
2023-06-11T18:09:07.480Z,19.66
2023-06-11T18:11:36.687Z,19.65
2023-06-11T18:14:04.575Z,19.66
2023-06-11T18:16:34.774Z,19.65
2023-06-11T18:19:03.894Z,19.65
2023-06-11T18:21:31.836Z,19.63
2023-06-11T18:23:59.819Z,19.60
2023-06-11T18:26:27.775Z,19.52
2023-06-11T18:28:55.985Z,19.45
2023-06-11T18:31:24.949Z,19.42
2023-06-11T18:33:55.044Z,19.39
2023-06-11T18:36:22.803Z,19.34
2023-06-11T18:38:50.836Z,19.27
2023-06-11T18:41:21.135Z,19.21
2023-06-11T18:43:49.045Z,19.15
2023-06-11T18:46:17.004Z,19.10
2023-06-11T18:48:47.541Z,19.05
2023-06-11T18:51:15.565Z,18.97
2023-06-11T18:53:43.792Z,18.92
2023-06-11T18:56:11.679Z,18.88
2023-06-11T18:58:39.772Z,18.86
2023-06-11T19:01:08.088Z,18.82
2023-06-11T19:03:39.343Z,18.76
2023-06-11T19:06:08.899Z,18.68
2023-06-11T19:08:36.924Z,18.63
2023-06-11T19:11:04.797Z,18.58
2023-06-11T19:13:32.695Z,18.56
2023-06-11T19:16:00.619Z,18.56
2023-06-11T19:18:28.437Z,18.56
2023-06-11T19:20:56.804Z,18.53
2023-06-11T19:23:26.536Z,18.47
2023-06-11T19:25:56.132Z,18.46
2023-06-11T19:28:23.983Z,18.45
2023-06-11T19:30:51.841Z,18.44
2023-06-11T19:33:19.816Z,18.42
2023-06-11T19:35:47.725Z,18.42
2023-06-11T19:38:15.776Z,18.41
2023-06-11T19:40:43.787Z,18.40
2023-06-11T19:43:11.788Z,18.41
2023-06-11T19:45:39.609Z,18.43
2023-06-11T19:48:07.497Z,18.44
2023-06-11T19:50:35.828Z,18.44
2023-06-11T19:53:03.972Z,18.44
2023-06-11T19:55:32.385Z,18.43
2023-06-11T19:58:00.750Z,18.41
2023-06-11T20:00:29.195Z,18.37
2023-06-11T20:02:57.167Z,18.33
2023-06-11T20:05:26.063Z,18.29
2023-06-11T20:07:53.930Z,18.28
2023-06-11T20:10:24.705Z,18.27
2023-06-11T20:12:52.478Z,18.26
2023-06-11T20:15:20.651Z,18.26
2023-06-11T20:17:48.586Z,18.26
2023-06-11T20:20:16.592Z,18.26
2023-06-11T20:22:45.955Z,18.23
2023-06-11T20:25:13.866Z,18.20
2023-06-11T20:27:41.735Z,18.16
2023-06-11T20:30:10.322Z,18.11
2023-06-11T20:32:38.523Z,18.06
2023-06-11T20:35:07.269Z,17.99
2023-06-11T20:37:35.796Z,17.93
2023-06-11T20:40:05.617Z,17.90
2023-06-11T20:42:33.451Z,17.87
2023-06-11T20:45:01.294Z,17.83
2023-06-11T20:47:29.655Z,17.80
2023-06-11T20:49:57.768Z,17.77
2023-06-11T20:52:27.462Z,17.72
2023-06-11T20:54:55.616Z,17.67
2023-06-11T20:57:23.904Z,17.64
2023-06-11T20:59:51.929Z,17.61
2023-06-11T21:02:20.189Z,17.61
2023-06-11T21:04:48.051Z,17.57
2023-06-11T21:07:16.654Z,17.52
2023-06-11T21:09:44.517Z,17.46
2023-06-11T21:12:13.404Z,17.40
2023-06-11T21:14:41.257Z,17.35
2023-06-11T21:17:09.200Z,17.32
2023-06-11T21:19:36.959Z,17.31
2023-06-11T21:22:05.434Z,17.31
2023-06-11T21:24:33.263Z,17.30
2023-06-11T21:27:01.151Z,17.29
2023-06-11T21:29:29.102Z,17.28
2023-06-11T21:31:57.165Z,17.27
2023-06-11T21:34:25.133Z,17.26
2023-06-11T21:36:53.017Z,17.23
2023-06-11T21:39:20.952Z,17.20
2023-06-11T21:41:50.535Z,17.18
2023-06-11T21:44:20.435Z,17.16
2023-06-11T21:46:48.289Z,17.14
2023-06-11T21:49:16.298Z,17.13
2023-06-11T21:51:46.195Z,17.12
2023-06-11T21:54:14.145Z,17.12
2023-06-11T21:56:41.906Z,17.13
2023-06-11T21:59:09.707Z,17.16
2023-06-11T22:01:37.901Z,17.14
2023-06-11T22:04:06.511Z,17.09
2023-06-11T22:06:34.751Z,17.07
2023-06-11T22:09:02.588Z,17.05
2023-06-11T22:11:31.737Z,17.07
2023-06-11T22:13:59.674Z,17.05
2023-06-11T22:16:29.101Z,17.03
2023-06-11T22:18:58.228Z,17.02
2023-06-11T22:21:26.146Z,17.05
2023-06-11T22:23:56.645Z,17.09
2023-06-11T22:26:24.675Z,17.14
2023-06-11T22:28:52.664Z,17.19
2023-06-11T22:31:20.640Z,17.24
2023-06-11T22:33:48.788Z,17.28
2023-06-11T22:36:16.690Z,17.30
2023-06-11T22:38:44.849Z,17.30
2023-06-11T22:41:12.668Z,17.28
2023-06-11T22:43:41.089Z,17.24
2023-06-11T22:46:08.995Z,17.21
2023-06-11T22:48:37.102Z,17.16
2023-06-11T22:51:11.205Z,17.13
2023-06-11T22:53:39.632Z,17.11
2023-06-11T22:56:08.114Z,17.08
2023-06-11T22:58:36.085Z,17.04
2023-06-11T23:01:04.162Z,16.99
2023-06-11T23:03:32.266Z,16.96
2023-06-11T23:06:00.636Z,16.93
2023-06-11T23:08:28.990Z,16.90
2023-06-11T23:10:56.898Z,16.88
2023-06-11T23:13:24.992Z,16.86
2023-06-11T23:15:52.884Z,16.86
2023-06-11T23:18:21.016Z,16.85
2023-06-11T23:20:50.341Z,16.84
2023-06-11T23:23:18.583Z,16.83
2023-06-11T23:25:50.574Z,16.79
2023-06-11T23:28:19.526Z,16.76
2023-06-11T23:30:47.380Z,16.75
2023-06-11T23:33:15.290Z,16.75
2023-06-11T23:35:43.357Z,16.77
2023-06-11T23:38:11.281Z,16.79
2023-06-11T23:40:39.185Z,16.83
2023-06-11T23:43:07.111Z,16.86
2023-06-11T23:45:35.060Z,16.88
2023-06-11T23:48:03.032Z,16.87
2023-06-11T23:50:31.162Z,16.84
2023-06-11T23:52:59.557Z,16.81
2023-06-11T23:55:27.627Z,16.81
2023-06-11T23:58:19.680Z,16.81
